Time,TemperatureF,DewpointF,PressureIn,WindDirection,WindDirectionDegrees,WindSpeedMPH,WindSpeedGustMPH,Humidity,HourlyPrecipIn,Conditions,Clouds,dailyrainin,SoftwareType,DateUTC
2013-07-20 00:10:00,80.5,69.0,30.11,ENE,64,4.0,-999.0,68,-99.99,,,0.00,weatherlink.com 1.10,2013-07-20 04:10:00,
2013-07-20 00:26:00,80.5,69.0,30.11,ESE,104,0.0,-999.0,69,-99.99,,,0.00,weatherlink.com 1.10,2013-07-20 04:26:00,
2013-07-20 00:41:00,80.1,70.0,30.11,NE,35,1.0,-999.0,70,-99.99,,,0.00,weatherlink.com 1.10,2013-07-20 04:41:00,
2013-07-20 00:56:00,79.9,69.0,30.11,ESE,103,0.0,-999.0,70,-99.99,,,0.00,weatherlink.com 1.10,2013-07-20 04:56:00,
2013-07-20 01:11:00,79.6,69.0,30.11,East,101,0.0,-999.0,70,-99.99,,,0.00,weatherlink.com 1.10,2013-07-20 05:11:00,
2013-07-20 01:26:00,79.2,68.0,30.11,ESE,102,0.0,-999.0,69,-99.99,,,0.00,weatherlink.com 1.10,2013-07-20 05:26:00,
2013-07-20 01:41:00,78.8,68.0,30.11,East,100,0.0,-999.0,70,-99.99,,,0.00,weatherlink.com 1.10,2013-07-20 05:41:00,
2013-07-20 01:56:00,78.8,68.0,30.11,ENE,78,0.0,-999.0,70,-99.99,,,0.00,weatherlink.com 1.10,2013-07-20 05:56:00,
2013-07-20 02:11:00,78.6,68.0,30.10,ENE,78,0.0,-999.0,71,-99.99,,,0.00,weatherlink.com 1.10,2013-07-20 06:11:00,
2013-07-20 02:26:00,78.6,69.0,30.10,ENE,78,0.0,-999.0,72,-99.99,,,0.00,weatherlink.com 1.10,2013-07-20 06:26:00,
2013-07-20 02:41:00,78.3,69.0,30.09,ENE,72,2.0,-999.0,72,-99.99,,,0.00,weatherlink.com 1.10,2013-07-20 06:41:00,
2013-07-20 02:56:00,78.3,69.0,30.09,ENE,66,1.0,-999.0,73,-99.99,,,0.00,weatherlink.com 1.10,2013-07-20 06:56:00,
2013-07-20 03:11:00,78.1,68.0,30.09,SSE,160,0.0,-999.0,72,-99.99,,,0.00,weatherlink.com 1.10,2013-07-20 07:11:00,
2013-07-20 03:26:00,78.1,68.0,30.08,East,90,1.0,-999.0,71,-99.99,,,0.00,weatherlink.com 1.10,2013-07-20 07:26:00,
2013-07-20 03:41:00,77.9,68.0,30.08,SE,133,0.0,-999.0,71,-99.99,,,0.00,weatherlink.com 1.10,2013-07-20 07:41:00,
2013-07-20 03:56:00,77.9,68.0,30.08,ENE,75,0.0,-999.0,71,-99.99,,,0.00,weatherlink.com 1.10,2013-07-20 07:56:00,
2013-07-20 04:11:00,77.7,68.0,30.08,SE,124,0.0,-999.0,71,-99.99,,,0.00,weatherlink.com 1.10,2013-07-20 08:11:00,
2013-07-20 04:26:00,77.7,68.0,30.07,NE,35,0.0,-999.0,71,-99.99,,,0.00,weatherlink.com 1.10,2013-07-20 08:26:00,
2013-07-20 04:41:00,77.7,68.0,30.07,NE,41,0.0,-999.0,72,-99.99,,,0.00,weatherlink.com 1.10,2013-07-20 08:41:00,
2013-07-20 04:56:00,77.6,68.0,30.06,NE,41,0.0,-999.0,72,-99.99,,,0.00,weatherlink.com 1.10,2013-07-20 08:56:00,
2013-07-20 05:11:00,77.6,68.0,30.06,NE,41,0.0,-999.0,73,-99.99,,,0.00,weatherlink.com 1.10,2013-07-20 09:11:00,
2013-07-20 05:26:00,77.4,68.0,30.06,South,191,0.0,-999.0,73,-99.99,,,0.00,weatherlink.com 1.10,2013-07-20 09:26:00,
2013-07-20 05:41:00,77.4,68.0,30.06,ESE,122,0.0,-999.0,73,-99.99,,,0.00,weatherlink.com 1.10,2013-07-20 09:41:00,
2013-07-20 05:56:00,77.4,68.0,30.07,East,100,0.0,-999.0,72,-99.99,,,0.00,weatherlink.com 1.10,2013-07-20 09:56:00,
2013-07-20 06:11:00,77.4,68.0,30.08,SE,130,2.0,-999.0,72,-99.99,,,0.00,weatherlink.com 1.10,2013-07-20 10:11:00,
2013-07-20 06:26:00,77.0,67.0,30.08,ESE,110,0.0,-999.0,72,-99.99,,,0.00,weatherlink.com 1.10,2013-07-20 10:26:00,
2013-07-20 06:41:00,77.0,67.0,30.08,SE,127,0.0,-999.0,72,-99.99,,,0.00,weatherlink.com 1.10,2013-07-20 10:41:00,
2013-07-20 06:56:00,77.0,67.0,30.09,ESE,115,0.0,-999.0,72,-99.99,,,0.00,weatherlink.com 1.10,2013-07-20 10:56:00,
2013-07-20 07:11:00,77.0,68.0,30.08,NE,35,0.0,-999.0,73,-99.99,,,0.00,weatherlink.com 1.10,2013-07-20 11:11:00,
2013-07-20 07:26:00,77.2,68.0,30.08,ESE,121,3.0,-999.0,73,-99.99,,,0.00,weatherlink.com 1.10,2013-07-20 11:26:00,
2013-07-20 07:41:00,77.0,68.0,30.08,SE,126,0.0,-999.0,73,-99.99,,,0.00,weatherlink.com 1.10,2013-07-20 11:41:00,
2013-07-20 07:56:00,77.2,68.0,30.09,SE,128,0.0,-999.0,74,-99.99,,,0.00,weatherlink.com 1.10,2013-07-20 11:56:00,
2013-07-20 08:11:00,77.4,69.0,30.09,SE,128,0.0,-999.0,74,-99.99,,,0.00,weatherlink.com 1.10,2013-07-20 12:11:00,
2013-07-20 08:26:00,77.7,68.0,30.09,ESE,111,0.0,-999.0,73,-99.99,,,0.00,weatherlink.com 1.10,2013-07-20 12:26:00,
2013-07-20 08:41:00,78.1,68.0,30.09,ESE,106,2.0,-999.0,71,-99.99,,,0.00,weatherlink.com 1.10,2013-07-20 12:41:00,
2013-07-20 08:56:00,78.3,69.0,30.10,ESE,105,0.0,-999.0,72,-99.99,,,0.00,weatherlink.com 1.10,2013-07-20 12:56:00,
2013-07-20 09:11:00,78.6,68.0,30.10,ESE,105,0.0,-999.0,70,-99.99,,,0.00,weatherlink.com 1.10,2013-07-20 13:11:00,
2013-07-20 09:26:00,79.4,69.0,30.11,East,99,0.0,-999.0,71,-99.99,,,0.00,weatherlink.com 1.10,2013-07-20 13:26:00,
2013-07-20 09:41:00,79.6,69.0,30.11,ESE,104,0.0,-999.0,70,-99.99,,,0.00,weatherlink.com 1.10,2013-07-20 13:41:00,
2013-07-20 09:56:00,80.1,69.0,30.11,ESE,104,0.0,-999.0,69,-99.99,,,0.00,weatherlink.com 1.10,2013-07-20 13:56:00,
2013-07-20 10:11:00,80.3,69.0,30.11,ESE,104,0.0,-999.0,68,-99.99,,,0.00,weatherlink.com 1.10,2013-07-20 14:11:00,
2013-07-20 10:26:00,80.3,68.0,30.11,ESE,118,0.0,-999.0,67,-99.99,,,0.00,weatherlink.com 1.10,2013-07-20 14:26:00,
2013-07-20 10:41:00,80.5,69.0,30.12,East,84,0.0,-999.0,67,-99.99,,,0.00,weatherlink.com 1.10,2013-07-20 14:41:00,
2013-07-20 10:56:00,80.9,68.0,30.12,ENE,65,0.0,-999.0,65,-99.99,,,0.00,weatherlink.com 1.10,2013-07-20 14:56:00,
2013-07-20 11:11:00,81.4,68.0,30.12,East,87,0.0,-999.0,63,-99.99,,,0.00,weatherlink.com 1.10,2013-07-20 15:11:00,
2013-07-20 11:26:00,82.2,67.0,30.11,ESE,110,0.0,-999.0,61,-99.99,,,0.00,weatherlink.com 1.10,2013-07-20 15:26:00,
2013-07-20 11:41:00,82.8,67.0,30.12,East,83,0.0,-999.0,59,-99.99,,,0.00,weatherlink.com 1.10,2013-07-20 15:41:00,
2013-07-20 11:56:00,83.6,67.0,30.12,ENE,60,0.0,-999.0,57,-99.99,,,0.00,weatherlink.com 1.10,2013-07-20 15:56:00,
2013-07-20 12:11:00,84.0,67.0,30.12,East,83,2.0,-999.0,57,-99.99,,,0.00,weatherlink.com 1.10,2013-07-20 16:11:00,
2013-07-20 12:26:00,84.7,68.0,30.11,East,84,2.0,-999.0,57,-99.99,,,0.00,weatherlink.com 1.10,2013-07-20 16:26:00,
2013-07-20 12:41:00,85.7,68.0,30.11,North,350,0.0,-999.0,56,-99.99,,,0.00,weatherlink.com 1.10,2013-07-20 16:41:00,
2013-07-20 12:56:00,86.7,69.0,30.11,East,94,3.0,-999.0,55,-99.99,,,0.00,weatherlink.com 1.10,2013-07-20 16:56:00,
2013-07-20 13:11:00,86.5,68.0,30.11,NNW,345,0.0,-999.0,55,-99.99,,,0.00,weatherlink.com 1.10,2013-07-20 17:11:00,
2013-07-20 13:26:00,86.5,68.0,30.09,ENE,64,2.0,-999.0,55,-99.99,,,0.00,weatherlink.com 1.10,2013-07-20 17:26:00,
2013-07-20 13:41:00,86.7,69.0,30.09,NE,51,2.0,-999.0,55,-99.99,,,0.00,weatherlink.com 1.10,2013-07-20 17:41:00,
2013-07-20 13:56:00,85.7,69.0,30.09,East,85,1.0,-999.0,57,-99.99,,,0.00,weatherlink.com 1.10,2013-07-20 17:56:00,
2013-07-20 14:11:00,87.4,69.0,30.08,ENE,70,3.0,-999.0,55,-99.99,,,0.00,weatherlink.com 1.10,2013-07-20 18:11:00,
2013-07-20 14:26:00,87.4,68.0,30.07,ENE,62,2.0,-999.0,53,-99.99,,,0.00,weatherlink.com 1.10,2013-07-20 18:26:00,
2013-07-20 14:41:00,87.8,69.0,30.06,East,88,1.0,-999.0,54,-99.99,,,0.00,weatherlink.com 1.10,2013-07-20 18:41:00,
2013-07-20 14:56:00,82.8,67.0,30.06,East,99,0.0,-999.0,60,-99.99,,,0.17,weatherlink.com 1.10,2013-07-20 18:56:00,
2013-07-20 15:11:00,77.9,67.0,30.08,East,96,0.0,-999.0,68,-99.99,,,0.46,weatherlink.com 1.10,2013-07-20 19:11:00,
2013-07-20 15:42:00,76.7,68.0,30.06,ESE,103,0.0,-999.0,75,-99.99,,,0.46,weatherlink.com 1.10,2013-07-20 19:42:00,
2013-07-20 16:12:00,77.4,70.0,30.06,East,88,0.0,-999.0,79,-99.99,,,0.46,weatherlink.com 1.10,2013-07-20 20:12:00,
2013-07-20 16:27:00,79.4,72.0,30.05,NNE,33,1.0,-999.0,79,-99.99,,,0.46,weatherlink.com 1.10,2013-07-20 20:27:00,
2013-07-20 16:42:00,79.4,70.0,30.05,SSE,153,2.0,-999.0,74,-99.99,,,0.46,weatherlink.com 1.10,2013-07-20 20:42:00,
2013-07-20 16:57:00,79.8,71.0,30.04,ENE,74,0.0,-999.0,75,-99.99,,,0.46,weatherlink.com 1.10,2013-07-20 20:57:00,
2013-07-20 17:12:00,80.1,71.0,30.04,ENE,64,1.0,-999.0,74,-99.99,,,0.46,weatherlink.com 1.10,2013-07-20 21:12:00,
2013-07-20 17:27:00,79.8,70.0,30.03,ESE,110,1.0,-999.0,71,-99.99,,,0.46,weatherlink.com 1.10,2013-07-20 21:27:00,
2013-07-20 17:42:00,79.9,70.0,30.03,NE,44,4.0,-999.0,71,-99.99,,,0.46,weatherlink.com 1.10,2013-07-20 21:42:00,
2013-07-20 17:57:00,80.7,70.0,30.03,NE,47,1.0,-999.0,70,-99.99,,,0.46,weatherlink.com 1.10,2013-07-20 21:57:00,
2013-07-20 18:12:00,81.4,69.0,30.03,NNE,20,1.0,-999.0,67,-99.99,,,0.46,weatherlink.com 1.10,2013-07-20 22:12:00,
2013-07-20 18:27:00,81.2,69.0,30.03,North,349,0.0,-999.0,67,-99.99,,,0.46,weatherlink.com 1.10,2013-07-20 22:27:00,
2013-07-20 18:42:00,81.2,69.0,30.03,East,99,2.0,-999.0,67,-99.99,,,0.46,weatherlink.com 1.10,2013-07-20 22:42:00,
2013-07-20 18:57:00,81.4,70.0,30.03,ENE,72,0.0,-999.0,68,-99.99,,,0.46,weatherlink.com 1.10,2013-07-20 22:57:00,
2013-07-20 19:12:00,79.6,69.0,30.04,NE,39,3.0,-999.0,70,-99.99,,,0.46,weatherlink.com 1.10,2013-07-20 23:12:00,
2013-07-20 19:27:00,78.1,68.0,30.05,ENE,60,2.0,-999.0,72,-99.99,,,0.46,weatherlink.com 1.10,2013-07-20 23:27:00,
2013-07-20 19:57:00,77.0,68.0,30.04,ENE,68,0.0,-999.0,74,-99.99,,,0.46,weatherlink.com 1.10,2013-07-20 23:57:00,
2013-07-20 20:27:00,77.0,68.0,30.05,ENE,57,1.0,-999.0,74,-99.99,,,0.46,weatherlink.com 1.10,2013-07-21 00:27:00,
2013-07-20 20:42:00,77.0,68.0,30.05,NE,38,5.0,-999.0,73,-99.99,,,0.46,weatherlink.com 1.10,2013-07-21 00:42:00,
2013-07-20 21:57:00,77.2,68.0,30.06,North,10,3.0,-999.0,73,-99.99,,,0.46,weatherlink.com 1.10,2013-07-21 01:57:00,
2013-07-20 22:12:00,77.2,68.0,30.06,West,268,2.0,-999.0,74,-99.99,,,0.46,weatherlink.com 1.10,2013-07-21 02:12:00,
2013-07-20 22:27:00,77.2,68.0,30.06,ENE,62,2.0,-999.0,73,-99.99,,,0.46,weatherlink.com 1.10,2013-07-21 02:27:00,
2013-07-20 22:42:00,77.4,69.0,30.07,North,356,3.0,-999.0,74,-99.99,,,0.46,weatherlink.com 1.10,2013-07-21 02:42:00,
2013-07-20 22:57:00,77.6,69.0,30.07,East,100,2.0,-999.0,74,-99.99,,,0.46,weatherlink.com 1.10,2013-07-21 02:57:00,
2013-07-20 23:12:00,77.7,69.0,30.07,East,85,1.0,-999.0,75,-99.99,,,0.46,weatherlink.com 1.10,2013-07-21 03:12:00,
2013-07-20 23:27:00,77.9,69.0,30.07,East,92,3.0,-999.0,74,-99.99,,,0.46,weatherlink.com 1.10,2013-07-21 03:27:00,
2013-07-20 23:42:00,77.7,68.0,30.07,ENE,69,0.0,-999.0,73,-99.99,,,0.46,weatherlink.com 1.10,2013-07-21 03:42:00,
2013-07-20 23:57:00,77.4,67.0,30.07,ESE,116,0.0,-999.0,71,-99.99,,,0.46,weatherlink.com 1.10,2013-07-21 03:57:00,